createdAt,value
2023-01-13T00:01:55.821Z,10.14
2023-01-13T00:04:28.961Z,10.19
2023-01-13T00:06:59.263Z,10.22
2023-01-13T00:09:29.610Z,10.33
2023-01-13T00:11:59.998Z,10.29
2023-01-13T00:14:32.410Z,10.29
2023-01-13T00:17:02.706Z,10.24
2023-01-13T00:19:35.877Z,10.22
2023-01-13T00:22:06.579Z,10.22
2023-01-13T00:24:37.010Z,10.26
2023-01-13T00:27:07.456Z,10.26
2023-01-13T00:29:37.860Z,10.36
2023-01-13T00:32:08.342Z,10.38
2023-01-13T00:34:41.318Z,10.37
2023-01-13T00:37:13.221Z,10.41
2023-01-13T00:39:43.573Z,10.40
2023-01-13T00:42:26.272Z,10.36
2023-01-13T00:44:56.667Z,10.33
2023-01-13T00:47:27.075Z,10.36
2023-01-13T00:50:00.154Z,10.37
2023-01-13T00:52:30.471Z,10.42
2023-01-13T00:55:01.051Z,10.43
2023-01-13T00:57:31.487Z,10.50
2023-01-13T01:00:01.903Z,10.46
2023-01-13T01:02:32.325Z,10.56
2023-01-13T01:05:05.404Z,10.55
2023-01-13T01:07:35.840Z,10.53
2023-01-13T01:10:06.466Z,10.50
2023-01-13T01:12:38.232Z,10.49
2023-01-13T01:15:11.080Z,10.51
2023-01-13T01:17:41.554Z,10.45
2023-01-13T01:20:15.722Z,10.37
2023-01-13T01:22:46.170Z,10.40
2023-01-13T01:25:16.573Z,10.37
2023-01-13T01:27:46.933Z,10.32
2023-01-13T01:30:18.606Z,10.31
2023-01-13T01:32:48.980Z,10.24
2023-01-13T01:35:22.002Z,10.20
2023-01-13T01:37:52.431Z,10.19
2023-01-13T01:40:22.975Z,10.20
2023-01-13T01:43:05.733Z,10.21
2023-01-13T01:45:36.411Z,10.20
2023-01-13T01:48:09.183Z,10.24
2023-01-13T01:50:43.392Z,10.20
2023-01-13T01:53:19.706Z,10.21
2023-01-13T01:55:50.665Z,10.22
2023-01-13T01:58:26.216Z,10.24
2023-01-13T02:00:56.711Z,10.21
2023-01-13T02:03:27.290Z,10.24
2023-01-13T02:06:00.542Z,10.23
2023-01-13T02:08:30.953Z,10.30
2023-01-13T02:11:01.387Z,10.40
2023-01-13T02:13:29.311Z,10.35
2023-01-13T02:16:09.427Z,10.33
2023-01-13T02:18:58.228Z,10.33
2023-01-13T02:21:58.319Z,10.33
2023-01-13T02:24:58.549Z,10.35
2023-01-13T02:27:50.615Z,10.34
2023-01-13T02:30:48.271Z,10.35
2023-01-13T02:33:39.416Z,10.42
2023-01-13T02:36:18.402Z,10.44
2023-01-13T02:38:55.485Z,10.40
2023-01-13T02:41:44.721Z,10.39
2023-01-13T02:44:19.894Z,10.44
2023-01-13T02:47:00.832Z,10.46
2023-01-13T02:49:39.044Z,10.46
2023-01-13T02:52:15.246Z,10.47
2023-01-13T02:54:54.189Z,10.47
2023-01-13T02:57:27.174Z,10.38
2023-01-13T02:59:59.124Z,10.49
2023-01-13T03:02:32.090Z,10.53
2023-01-13T03:05:03.410Z,10.52
2023-01-13T03:07:58.544Z,10.47
2023-01-13T03:10:52.873Z,10.45
2023-01-13T03:13:41.122Z,10.45
2023-01-13T03:16:26.844Z,10.43
2023-01-13T03:19:13.361Z,10.49
2023-01-13T03:21:51.673Z,10.48
2023-01-13T03:24:29.791Z,10.50
2023-01-13T03:27:07.602Z,10.44
2023-01-13T03:29:42.359Z,10.47
2023-01-13T03:32:18.637Z,10.49
2023-01-13T03:34:55.865Z,10.56
2023-01-13T03:37:34.556Z,10.48
2023-01-13T03:40:12.015Z,10.50
2023-01-13T03:43:06.890Z,10.48
2023-01-13T03:45:36.536Z,10.44
2023-01-13T03:48:10.745Z,10.45
2023-01-13T03:50:50.247Z,10.44
2023-01-13T03:53:24.119Z,10.41
2023-01-13T03:55:59.788Z,10.47
2023-01-13T03:58:36.119Z,10.48
2023-01-13T04:01:16.180Z,10.45
2023-01-13T04:03:54.970Z,10.43
2023-01-13T04:06:40.387Z,10.48
2023-01-13T04:09:17.937Z,10.44
2023-01-13T04:11:56.075Z,10.42
2023-01-13T04:14:31.106Z,10.45
2023-01-13T04:17:01.478Z,10.50
2023-01-13T04:19:33.087Z,10.50
2023-01-13T04:22:06.047Z,10.45
2023-01-13T04:24:37.280Z,10.47
2023-01-13T04:27:07.845Z,10.44
2023-01-13T04:29:38.211Z,10.40
2023-01-13T04:32:08.679Z,10.39
2023-01-13T04:34:39.034Z,10.41
2023-01-13T04:37:12.046Z,10.44
2023-01-13T04:39:42.405Z,10.43
2023-01-13T04:42:12.757Z,10.41
2023-01-13T04:44:43.117Z,10.40
2023-01-13T04:47:13.419Z,10.46
2023-01-13T04:49:43.821Z,10.45
2023-01-13T04:52:16.888Z,10.36
2023-01-13T04:54:47.157Z,10.42
2023-01-13T04:57:17.471Z,10.44
2023-01-13T04:59:47.883Z,10.45
2023-01-13T05:02:20.014Z,10.44
2023-01-13T05:04:50.964Z,10.42
2023-01-13T05:07:23.926Z,10.36
2023-01-13T05:09:54.267Z,10.40
2023-01-13T05:12:37.305Z,10.40
2023-01-13T05:15:21.859Z,10.35
2023-01-13T05:17:52.814Z,10.27
2023-01-13T05:20:23.485Z,10.35
2023-01-13T05:23:08.868Z,10.31
2023-01-13T05:25:44.471Z,10.22
2023-01-13T05:28:15.119Z,10.22
2023-01-13T05:30:49.639Z,10.27
2023-01-13T05:33:23.156Z,10.27
2023-01-13T05:35:53.493Z,10.32
2023-01-13T05:38:26.488Z,10.32
2023-01-13T05:41:14.596Z,10.30
2023-01-13T05:43:44.961Z,10.32
2023-01-13T05:46:17.833Z,10.35
2023-01-13T05:48:48.470Z,10.39
2023-01-13T05:51:19.339Z,10.38
2023-01-13T05:53:52.361Z,10.44
2023-01-13T05:56:22.659Z,10.49
2023-01-13T05:58:52.943Z,10.46
2023-01-13T06:01:23.447Z,10.45
2023-01-13T06:03:53.842Z,10.55
2023-01-13T06:06:24.232Z,10.55
2023-01-13T06:08:57.316Z,10.54
2023-01-13T06:11:27.539Z,10.51
2023-01-13T06:13:57.805Z,10.51
2023-01-13T06:16:28.192Z,10.64
2023-01-13T06:18:58.687Z,10.56
2023-01-13T06:21:29.084Z,10.51
2023-01-13T06:24:02.806Z,10.54
2023-01-13T06:26:38.682Z,10.58
2023-01-13T06:29:10.248Z,10.67
2023-01-13T06:31:42.771Z,10.59
2023-01-13T06:34:16.899Z,10.64
2023-01-13T06:36:51.998Z,10.61
2023-01-13T06:39:30.801Z,10.70
2023-01-13T06:42:14.404Z,10.73
2023-01-13T06:44:44.818Z,10.72
2023-01-13T06:47:15.202Z,10.66
2023-01-13T06:49:45.546Z,10.59
2023-01-13T06:52:15.840Z,10.66
2023-01-13T06:54:48.857Z,10.62
2023-01-13T06:57:19.135Z,10.69
2023-01-13T06:59:50.705Z,10.63
2023-01-13T07:02:21.264Z,10.76
2023-01-13T07:04:51.753Z,10.71
2023-01-13T07:07:22.114Z,10.77
2023-01-13T07:09:55.142Z,10.86
2023-01-13T07:12:25.450Z,10.82
2023-01-13T07:15:08.082Z,10.90
2023-01-13T07:17:38.371Z,10.83
2023-01-13T07:20:11.016Z,10.77
2023-01-13T07:22:41.356Z,10.84
2023-01-13T07:25:15.222Z,10.83
2023-01-13T07:27:45.697Z,10.80
2023-01-13T07:30:17.209Z,10.75
2023-01-13T07:32:47.603Z,10.86
2023-01-13T07:35:23.124Z,10.91
2023-01-13T07:37:53.675Z,10.93
2023-01-13T07:40:26.688Z,10.95
2023-01-13T07:43:09.570Z,10.94
2023-01-13T07:45:39.955Z,10.85
2023-01-13T07:48:10.533Z,10.93
2023-01-13T07:50:43.309Z,10.93
2023-01-13T07:53:14.409Z,10.86
2023-01-13T07:55:47.832Z,10.91
2023-01-13T07:58:18.279Z,10.95
2023-01-13T08:00:48.699Z,10.87
2023-01-13T08:03:19.079Z,10.89
2023-01-13T08:05:50.021Z,10.91
2023-01-13T08:08:20.847Z,10.84
2023-01-13T08:10:53.805Z,10.80
2023-01-13T08:13:24.265Z,10.88
2023-01-13T08:16:02.062Z,10.95
2023-01-13T08:18:32.911Z,10.99
2023-01-13T08:21:07.962Z,10.99
2023-01-13T08:23:39.053Z,11.03
2023-01-13T08:26:14.033Z,10.92
2023-01-13T08:28:44.707Z,10.88
2023-01-13T08:31:17.419Z,10.94
2023-01-13T08:33:47.934Z,10.85
2023-01-13T08:36:18.680Z,10.95
2023-01-13T08:38:49.184Z,10.95
2023-01-13T08:41:42.368Z,10.93
2023-01-13T08:44:12.714Z,10.93
2023-01-13T08:46:44.940Z,10.96
2023-01-13T08:49:15.417Z,10.95
2023-01-13T08:51:45.806Z,10.95
2023-01-13T08:54:16.922Z,10.87
2023-01-13T08:56:50.284Z,10.57
2023-01-13T08:59:23.033Z,10.25
2023-01-13T09:01:53.507Z,10.07
2023-01-13T09:04:27.825Z,10.05
2023-01-13T09:06:58.930Z,10.04
2023-01-13T09:09:30.108Z,9.86
2023-01-13T09:12:15.442Z,9.77
2023-01-13T09:14:45.827Z,9.61
2023-01-13T09:17:16.395Z,9.61
2023-01-13T09:19:46.969Z,9.52
2023-01-13T09:22:19.403Z,9.50
2023-01-13T09:24:50.085Z,9.39
2023-01-13T09:27:23.609Z,9.35
2023-01-13T09:29:53.916Z,9.24
2023-01-13T09:32:24.379Z,9.22
2023-01-13T09:35:00.898Z,9.21
2023-01-13T09:37:34.343Z,9.26
2023-01-13T09:40:04.886Z,9.17
2023-01-13T09:43:01.951Z,8.91
2023-01-13T09:45:41.399Z,8.88
2023-01-13T09:48:18.882Z,8.93
2023-01-13T09:51:03.676Z,8.84
2023-01-13T09:53:40.617Z,8.87
2023-01-13T09:56:14.116Z,8.78
2023-01-13T09:58:48.657Z,8.68
2023-01-13T10:01:29.447Z,8.78
2023-01-13T10:04:03.574Z,8.85
2023-01-13T10:06:42.205Z,8.93
2023-01-13T10:09:21.268Z,8.79
2023-01-13T10:12:06.209Z,8.74
2023-01-13T10:14:46.873Z,8.83
2023-01-13T10:17:29.143Z,9.14
2023-01-13T10:20:08.391Z,9.32
2023-01-13T10:22:54.901Z,9.45
2023-01-13T10:25:52.087Z,9.56
2023-01-13T10:28:24.126Z,9.70
2023-01-13T10:30:57.167Z,10.06
2023-01-13T10:33:31.062Z,10.42
2023-01-13T10:36:04.208Z,10.34
2023-01-13T10:38:41.467Z,10.08
2023-01-13T10:41:27.124Z,9.68
2023-01-13T10:44:08.558Z,9.65
2023-01-13T10:46:56.228Z,9.70
2023-01-13T10:49:36.481Z,9.58
2023-01-13T10:52:27.646Z,9.32
2023-01-13T10:55:01.127Z,9.22
2023-01-13T10:57:31.787Z,9.18
2023-01-13T11:00:09.015Z,9.16
2023-01-13T11:02:42.017Z,9.15
2023-01-13T11:05:25.535Z,9.25
2023-01-13T11:07:58.171Z,9.36
2023-01-13T11:10:32.528Z,9.32
2023-01-13T11:13:10.950Z,9.30
2023-01-13T11:15:48.513Z,9.22
2023-01-13T11:18:34.217Z,9.27
2023-01-13T11:21:11.096Z,9.17
2023-01-13T11:23:51.380Z,9.16
2023-01-13T11:26:30.481Z,9.13
2023-01-13T11:29:11.543Z,9.19
2023-01-13T11:31:49.188Z,9.20
2023-01-13T11:34:33.178Z,9.39
2023-01-13T11:37:09.899Z,9.49
2023-01-13T11:39:54.038Z,9.43
2023-01-13T11:42:31.058Z,9.55
2023-01-13T11:45:21.196Z,9.74
2023-01-13T11:47:58.397Z,10.60
2023-01-13T11:50:43.194Z,12.60
2023-01-13T11:53:32.660Z,12.36
2023-01-13T11:56:21.150Z,14.32
2023-01-13T11:59:15.398Z,15.70
2023-01-13T12:02:03.933Z,15.40
2023-01-13T12:04:47.333Z,13.92
2023-01-13T12:07:24.968Z,12.86
2023-01-13T12:10:13.212Z,12.25
2023-01-13T12:13:00.132Z,11.69
2023-01-13T12:15:59.952Z,11.12
2023-01-13T12:19:22.160Z,10.96
2023-01-13T12:22:14.033Z,10.56
2023-01-13T12:24:52.650Z,10.38
2023-01-13T12:27:33.646Z,10.91
2023-01-13T12:30:16.503Z,11.53
2023-01-13T12:32:49.037Z,12.52
2023-01-13T12:35:35.724Z,13.25
2023-01-13T12:38:19.501Z,14.30
2023-01-13T12:41:04.738Z,13.49
2023-01-13T12:43:49.209Z,14.92
2023-01-13T12:46:56.075Z,17.00
2023-01-13T12:49:33.205Z,17.86
2023-01-13T12:52:20.022Z,18.29
2023-01-13T12:55:16.999Z,18.80
2023-01-13T12:58:18.168Z,18.58
2023-01-13T13:01:02.682Z,19.28
2023-01-13T13:03:37.070Z,18.30
2023-01-13T13:06:13.584Z,16.86
2023-01-13T13:09:07.543Z,17.49
2023-01-13T13:11:59.732Z,19.05
2023-01-13T13:15:07.209Z,19.56
2023-01-13T13:17:50.499Z,20.31
2023-01-13T13:21:06.952Z,19.83
2023-01-13T13:24:00.876Z,18.72
2023-01-13T13:26:39.264Z,17.38
2023-01-13T13:29:25.359Z,16.02
2023-01-13T13:32:32.669Z,15.62
2023-01-13T13:35:21.496Z,14.94
2023-01-13T13:38:18.178Z,13.94
2023-01-13T13:41:03.001Z,13.18
2023-01-13T13:43:54.473Z,12.77
2023-01-13T13:46:42.474Z,12.15
2023-01-13T13:49:16.484Z,11.58
2023-01-13T13:51:53.254Z,11.36
2023-01-13T13:54:25.587Z,11.50
2023-01-13T13:56:58.182Z,11.43
2023-01-13T13:59:33.791Z,11.39
2023-01-13T14:02:05.046Z,11.40
2023-01-13T14:04:40.752Z,11.57
2023-01-13T14:07:21.372Z,11.73
2023-01-13T14:09:58.933Z,11.66
2023-01-13T14:12:30.807Z,11.45
2023-01-13T14:15:01.372Z,11.40
2023-01-13T14:17:33.685Z,11.17
2023-01-13T14:20:10.696Z,10.96
2023-01-13T14:22:41.189Z,10.90
2023-01-13T14:25:31.652Z,10.90
2023-01-13T14:28:10.590Z,11.07
2023-01-13T14:30:41.088Z,11.38
2023-01-13T14:33:18.281Z,11.55
2023-01-13T14:36:27.490Z,11.58
2023-01-13T14:39:34.954Z,11.34
2023-01-13T14:42:05.433Z,10.84
2023-01-13T14:44:38.971Z,10.68
2023-01-13T14:47:26.753Z,10.52
2023-01-13T14:50:05.286Z,10.42
2023-01-13T14:52:49.608Z,10.36
2023-01-13T14:55:30.775Z,10.15
2023-01-13T14:58:26.488Z,10.03
2023-01-13T15:01:30.576Z,10.00
2023-01-13T15:04:28.699Z,9.78
2023-01-13T15:07:00.565Z,9.63
2023-01-13T15:09:42.980Z,9.51
2023-01-13T15:12:23.669Z,9.50
2023-01-13T15:14:56.945Z,9.59
2023-01-13T15:17:27.008Z,9.60
2023-01-13T15:19:57.872Z,9.59
2023-01-13T15:22:29.609Z,9.62
2023-01-13T15:25:02.690Z,9.59
2023-01-13T15:27:33.048Z,9.48
2023-01-13T15:30:03.559Z,9.48
2023-01-13T15:32:33.943Z,9.38
2023-01-13T15:35:04.329Z,9.28
2023-01-13T15:37:34.699Z,9.27
2023-01-13T15:40:15.494Z,9.23
2023-01-13T15:42:58.245Z,9.19
2023-01-13T15:45:41.301Z,8.98
2023-01-13T15:48:11.726Z,8.85
2023-01-13T15:50:42.198Z,8.73
2023-01-13T15:53:15.080Z,8.71
2023-01-13T15:55:52.015Z,8.62
2023-01-13T15:58:28.269Z,8.57
2023-01-13T16:00:59.081Z,8.55
2023-01-13T16:03:29.521Z,8.68
2023-01-13T16:05:59.955Z,8.67
2023-01-13T16:08:31.115Z,8.73
2023-01-13T16:11:03.826Z,8.55
2023-01-13T16:13:34.117Z,8.43
2023-01-13T16:16:05.086Z,8.31
2023-01-13T16:18:35.408Z,8.16
2023-01-13T16:21:05.728Z,8.11
2023-01-13T16:23:36.037Z,8.15
2023-01-13T16:26:14.136Z,8.04
2023-01-13T16:28:44.461Z,7.93
2023-01-13T16:31:27.103Z,7.92
2023-01-13T16:33:57.698Z,7.79
2023-01-13T16:36:28.224Z,7.78
2023-01-13T16:39:00.898Z,7.69
2023-01-13T16:41:33.965Z,7.60
2023-01-13T16:44:06.261Z,7.56
2023-01-13T16:46:37.265Z,7.52
2023-01-13T16:49:10.679Z,7.58
2023-01-13T16:51:41.021Z,7.51
2023-01-13T16:54:12.002Z,7.48
2023-01-13T16:56:45.307Z,7.39
2023-01-13T16:59:17.840Z,7.39
2023-01-13T17:01:48.556Z,7.39
2023-01-13T17:04:22.084Z,7.34
2023-01-13T17:07:00.249Z,7.40
2023-01-13T17:09:32.205Z,7.44
2023-01-13T17:12:05.283Z,7.39
2023-01-13T17:14:35.638Z,7.47
2023-01-13T17:17:06.020Z,7.63
2023-01-13T17:19:36.285Z,7.58
2023-01-13T17:22:06.573Z,7.47
2023-01-13T17:24:37.780Z,7.42
2023-01-13T17:27:10.557Z,7.42
2023-01-13T17:29:41.129Z,7.43
2023-01-13T17:32:12.800Z,7.42
2023-01-13T17:34:43.085Z,7.55
2023-01-13T17:37:15.057Z,7.59
2023-01-13T17:39:48.531Z,7.51
2023-01-13T17:42:21.559Z,7.48
2023-01-13T17:44:52.006Z,7.50
2023-01-13T17:47:22.614Z,7.59
2023-01-13T17:49:53.034Z,7.62
2023-01-13T17:52:23.413Z,7.70
2023-01-13T17:54:53.677Z,7.71
2023-01-13T17:57:26.633Z,7.78
2023-01-13T17:59:58.314Z,7.72
2023-01-13T18:02:30.323Z,7.75
2023-01-13T18:05:00.740Z,7.77
2023-01-13T18:07:31.050Z,7.83
2023-01-13T18:10:01.365Z,7.87
2023-01-13T18:12:35.039Z,7.92
2023-01-13T18:15:05.636Z,7.94
2023-01-13T18:17:36.011Z,7.95
2023-01-13T18:20:19.285Z,7.92
2023-01-13T18:23:01.971Z,7.91
2023-01-13T18:25:44.635Z,7.94
2023-01-13T18:28:17.598Z,7.95
2023-01-13T18:30:47.935Z,7.89
2023-01-13T18:33:18.391Z,7.88
2023-01-13T18:35:48.710Z,7.95
2023-01-13T18:38:19.417Z,7.98
2023-01-13T18:40:49.833Z,7.96
2023-01-13T18:43:20.246Z,7.97
2023-01-13T18:45:54.179Z,7.98
2023-01-13T18:48:24.555Z,7.84
2023-01-13T18:50:55.039Z,7.78
2023-01-13T18:53:25.435Z,7.79
2023-01-13T18:55:58.780Z,7.78
2023-01-13T18:58:33.185Z,7.72
2023-01-13T19:01:08.039Z,7.77
2023-01-13T19:03:38.383Z,7.75
2023-01-13T19:06:14.677Z,7.82
2023-01-13T19:08:45.414Z,7.71
2023-01-13T19:11:15.881Z,7.73
2023-01-13T19:13:49.221Z,7.74
2023-01-13T19:16:21.525Z,7.82
2023-01-13T19:18:52.437Z,7.70
2023-01-13T19:21:24.719Z,7.72
2023-01-13T19:23:56.564Z,7.67
2023-01-13T19:26:26.953Z,7.65
2023-01-13T19:28:59.896Z,7.66
2023-01-13T19:31:30.433Z,7.68
2023-01-13T19:34:00.857Z,7.67
2023-01-13T19:36:31.161Z,7.70
2023-01-13T19:39:01.905Z,7.81
2023-01-13T19:41:44.688Z,7.74
2023-01-13T19:44:30.076Z,7.75
2023-01-13T19:47:00.922Z,7.77
2023-01-13T19:49:31.273Z,7.77
2023-01-13T19:52:01.611Z,7.81
2023-01-13T19:54:32.192Z,7.92
2023-01-13T19:57:02.559Z,7.79
2023-01-13T19:59:35.727Z,7.72
2023-01-13T20:02:09.325Z,7.76
2023-01-13T20:04:44.371Z,7.71
2023-01-13T20:07:16.537Z,7.67
2023-01-13T20:09:47.317Z,7.66
2023-01-13T20:12:17.865Z,7.74
2023-01-13T20:14:50.861Z,7.70
2023-01-13T20:17:23.376Z,7.75
2023-01-13T20:19:53.661Z,7.69
2023-01-13T20:22:24.046Z,7.71
2023-01-13T20:24:55.423Z,7.72
2023-01-13T20:27:26.864Z,7.71
2023-01-13T20:29:59.736Z,7.74
2023-01-13T20:32:30.092Z,7.76
2023-01-13T20:35:00.366Z,7.78
2023-01-13T20:37:31.120Z,7.80
2023-01-13T20:40:01.870Z,7.83
2023-01-13T20:42:30.044Z,7.80
2023-01-13T20:45:04.053Z,7.83
2023-01-13T20:47:34.447Z,7.83
2023-01-13T20:50:04.916Z,7.77
2023-01-13T20:52:35.485Z,7.77
2023-01-13T20:55:06.093Z,7.66
2023-01-13T20:57:41.092Z,7.66
2023-01-13T21:00:23.066Z,7.70
2023-01-13T21:02:53.354Z,7.65
2023-01-13T21:05:23.751Z,7.67
2023-01-13T21:07:54.114Z,7.76
2023-01-13T21:10:25.939Z,7.82
2023-01-13T21:13:08.564Z,7.89
2023-01-13T21:15:41.468Z,7.85
2023-01-13T21:18:24.147Z,7.86
2023-01-13T21:21:11.585Z,7.88
2023-01-13T21:23:42.737Z,7.95
2023-01-13T21:26:15.709Z,7.99
2023-01-13T21:28:46.005Z,8.07
2023-01-13T21:31:19.831Z,7.98
2023-01-13T21:33:50.147Z,8.00
2023-01-13T21:36:20.484Z,7.99
2023-01-13T21:38:54.926Z,7.98
2023-01-13T21:41:38.264Z,7.93
2023-01-13T21:44:21.142Z,8.03
2023-01-13T21:47:06.528Z,8.04
2023-01-13T21:49:44.037Z,7.96
2023-01-13T21:52:15.115Z,7.95
2023-01-13T21:54:57.684Z,8.01
2023-01-13T21:57:28.054Z,8.02
2023-01-13T21:59:58.410Z,8.08
2023-01-13T22:02:32.097Z,8.05
2023-01-13T22:05:04.435Z,7.91
2023-01-13T22:07:36.596Z,7.84
2023-01-13T22:10:10.920Z,7.67
2023-01-13T22:12:43.341Z,7.70
2023-01-13T22:15:15.448Z,7.73
2023-01-13T22:17:48.629Z,7.72
2023-01-13T22:20:19.500Z,7.69
2023-01-13T22:22:50.393Z,7.68
2023-01-13T22:25:22.177Z,7.62
2023-01-13T22:28:03.560Z,7.64
2023-01-13T22:30:36.754Z,7.65
2023-01-13T22:33:09.965Z,7.71
2023-01-13T22:35:40.736Z,7.79
2023-01-13T22:38:13.888Z,7.78
2023-01-13T22:40:44.185Z,7.80
2023-01-13T22:43:14.548Z,7.81
2023-01-13T22:45:44.987Z,7.80
2023-01-13T22:48:18.033Z,7.88
2023-01-13T22:50:48.313Z,7.89
2023-01-13T22:53:18.598Z,7.90
2023-01-13T22:55:57.610Z,7.90
2023-01-13T22:58:28.444Z,7.89
2023-01-13T23:00:59.094Z,7.88
2023-01-13T23:03:32.090Z,7.98
2023-01-13T23:06:02.724Z,8.05
2023-01-13T23:08:33.131Z,7.95
2023-01-13T23:11:09.478Z,7.85
2023-01-13T23:13:44.043Z,7.83
2023-01-13T23:16:17.038Z,7.88
2023-01-13T23:18:53.678Z,7.85
2023-01-13T23:21:26.587Z,7.89
2023-01-13T23:23:58.792Z,7.86
2023-01-13T23:26:30.906Z,7.78
2023-01-13T23:29:07.290Z,7.77
2023-01-13T23:31:40.755Z,7.77
2023-01-13T23:34:13.675Z,7.73
2023-01-13T23:36:44.606Z,7.72
2023-01-13T23:39:14.979Z,7.70
2023-01-13T23:41:45.314Z,7.63
2023-01-13T23:44:15.591Z,7.64
2023-01-13T23:46:45.969Z,7.64
2023-01-13T23:49:18.876Z,7.62
2023-01-13T23:51:49.170Z,7.65
2023-01-13T23:54:19.515Z,7.62
2023-01-13T23:56:52.702Z,7.71
2023-01-13T23:59:23.816Z,7.70
